Time;durP1;ratioP1;P1;durP2;ratioP2;P2;SDS_P1;SDS_P2;PMS_P1;PMS_P2;Temp;Humidity;BMP_temperature;BMP_pressure;BME280_temperature;BME280_humidity;BME280_pressure;Samples;Min_cycle;Max_cycle;Signal;HPM_P1;HPM_P2
2021/12/05 00:24:21;;;;;;;5.35;1.80;;;5.20;99.90;;;;;;4955541;29;20031;-56
2021/12/05 00:26:58;;;;;;;5.80;1.42;;;5.20;99.90;;;;;;4956133;29;20380;-63
2021/12/05 00:29:30;;;;;;;6.07;1.77;;;5.20;99.90;;;;;;4955261;29;20031;-64
2021/12/05 00:54:34;;;;;;;6.82;2.08;;;4.80;99.90;;;;;;4955394;29;20039;-64
2021/12/05 00:57:31;;;;;;;3.47;1.23;;;4.80;99.90;;;;;;4954968;28;20058;-62
2021/12/05 01:02:58;;;;;;;3.97;1.83;;;4.70;99.90;;;;;;4954861;29;20106;-59
2021/12/05 01:08:53;;;;;;;4.47;2.13;;;4.70;99.90;;;;;;4955337;29;20114;-59
2021/12/05 01:13:35;;;;;;;3.90;1.35;;;4.70;99.90;;;;;;4954429;29;20043;-67
2021/12/05 01:16:05;;;;;;;6.82;2.15;;;4.90;99.90;;;;;;4955107;28;20038;-64
2021/12/05 01:18:31;;;;;;;5.00;1.65;;;4.60;99.90;;;;;;4954456;29;20054;-60
2021/12/05 01:21:06;;;;;;;3.92;1.55;;;4.70;99.90;;;;;;4954695;29;20117;-59
2021/12/05 01:26:10;;;;;;;5.28;1.90;;;4.70;99.90;;;;;;4954786;29;20047;-54
2021/12/05 01:33:52;;;;;;;4.35;1.75;;;4.80;99.90;;;;;;4954139;29;20035;-58
2021/12/05 01:36:31;;;;;;;10.65;2.30;;;4.90;99.90;;;;;;4954359;29;20396;-59
2021/12/05 01:58:06;;;;;;;8.85;2.03;;;4.90;99.90;;;;;;4953552;28;20510;-60
2021/12/05 02:09:22;;;;;;;4.80;1.23;;;4.90;99.90;;;;;;4953996;29;20031;-65
2021/12/05 02:42:07;;;;;;;6.03;1.75;;;5.00;99.90;;;;;;4953196;29;20046;-61
2021/12/05 02:44:33;;;;;;;6.90;1.50;;;4.90;99.90;;;;;;4952766;29;20103;-56
2021/12/05 02:47:07;;;;;;;12.73;1.98;;;5.00;99.90;;;;;;4953374;29;20031;-64
2021/12/05 02:49:35;;;;;;;5.20;1.38;;;5.00;99.90;;;;;;4952763;29;20038;-64
2021/12/05 02:52:06;;;;;;;7.25;1.40;;;5.00;99.90;;;;;;4953300;29;20070;-56
2021/12/05 02:54:39;;;;;;;4.38;2.03;;;5.00;99.90;;;;;;4952736;29;20023;-58
2021/12/05 02:57:07;;;;;;;6.47;1.48;;;5.00;99.90;;;;;;4953235;28;20047;-61
2021/12/05 03:02:16;;;;;;;8.32;2.20;;;4.90;99.90;;;;;;4953199;29;20066;-63
2021/12/05 03:04:46;;;;;;;7.40;1.25;;;5.00;99.90;;;;;;4952633;29;20085;-65
2021/12/05 03:07:15;;;;;;;7.47;1.75;;;4.90;99.90;;;;;;4967943;28;20361;-64
2021/12/05 03:09:43;;;;;;;8.65;3.30;;;4.80;99.90;;;;;;4952619;29;20035;-66
2021/12/05 03:12:16;;;;;;;7.18;1.73;;;4.90;99.90;;;;;;4953061;29;20043;-67
2021/12/05 03:14:42;;;;;;;6.85;2.60;;;4.90;99.90;;;;;;4952448;29;20130;-63
2021/12/05 03:17:08;;;;;;;9.05;2.10;;;4.90;99.90;;;;;;4953355;29;20381;-58
2021/12/05 03:19:33;;;;;;;12.10;2.78;;;4.80;99.90;;;;;;4952474;29;20023;-58
2021/12/05 03:21:59;;;;;;;9.40;2.53;;;4.80;99.90;;;;;;4953026;29;20047;-56
2021/12/05 03:24:25;;;;;;;11.88;2.53;;;4.70;99.90;;;;;;4952639;29;20034;-64
2021/12/05 03:26:53;;;;;;;13.82;3.25;;;4.70;99.90;;;;;;4935898;29;20038;-58
2021/12/05 03:29:20;;;;;;;6.82;1.70;;;4.60;99.90;;;;;;4967747;28;20182;-64
2021/12/05 03:31:46;;;;;;;8.52;2.38;;;4.50;99.90;;;;;;4952207;29;20103;-60
2021/12/05 03:34:15;;;;;;;6.03;1.70;;;4.70;99.90;;;;;;4952854;29;20019;-62
2021/12/05 03:36:45;;;;;;;9.05;1.80;;;4.60;99.90;;;;;;4952235;29;20563;-56
2021/12/05 03:39:11;;;;;;;6.30;1.45;;;4.40;99.90;;;;;;4968469;28;20516;-63
2021/12/05 03:41:37;;;;;;;9.90;2.50;;;4.40;99.90;;;;;;4956092;29;20038;-65
2021/12/05 03:44:05;;;;;;;12.05;2.00;;;4.50;99.90;;;;;;4956545;29;20028;-66
2021/12/05 03:46:31;;;;;;;8.32;2.10;;;4.50;99.90;;;;;;4955819;29;20395;-59
2021/12/05 03:49:05;;;;;;;8.23;2.25;;;4.40;99.90;;;;;;4956590;29;20126;-60
2021/12/05 03:51:34;;;;;;;9.48;1.75;;;4.40;99.90;;;;;;4955891;29;20185;-61
2021/12/05 03:54:01;;;;;;;7.22;1.63;;;4.40;99.90;;;;;;4955892;29;20101;-60
2021/12/05 03:56:27;;;;;;;8.98;2.20;;;4.40;99.90;;;;;;4955121;28;20051;-58
2021/12/05 03:58:54;;;;;;;7.80;2.10;;;4.50;99.90;;;;;;4956248;29;20433;-54
2021/12/05 04:01:21;;;;;;;5.43;1.60;;;4.40;99.90;;;;;;4956396;29;20027;-61
2021/12/05 04:03:48;;;;;;;6.28;1.70;;;4.50;99.90;;;;;;4955554;29;20078;-61
2021/12/05 04:06:17;;;;;;;7.60;1.77;;;4.50;99.90;;;;;;4955955;29;20424;-64
2021/12/05 04:08:43;;;;;;;38.22;3.47;;;4.50;99.90;;;;;;4938243;29;20344;-55
2021/12/05 04:11:15;;;;;;;12.30;2.75;;;4.60;99.90;;;;;;4938946;29;20050;-61
2021/12/05 04:13:42;;;;;;;7.22;2.95;;;4.50;99.90;;;;;;4955477;29;20039;-62
2021/12/05 04:16:08;;;;;;;9.43;1.77;;;4.50;99.90;;;;;;4955585;29;20469;-58
2021/12/05 04:18:36;;;;;;;5.85;1.70;;;4.50;99.90;;;;;;4955815;29;20109;-56
2021/12/05 04:21:02;;;;;;;9.27;1.77;;;4.50;99.90;;;;;;4956495;29;20425;-61
2021/12/05 04:23:28;;;;;;;10.82;1.67;;;4.50;99.90;;;;;;4955540;29;20036;-61
2021/12/05 04:25:55;;;;;;;21.13;2.30;;;4.50;99.90;;;;;;4955811;29;20102;-62
2021/12/05 04:28:22;;;;;;;7.72;1.58;;;4.60;99.90;;;;;;4938663;29;20480;-63
2021/12/05 04:30:48;;;;;;;8.82;1.73;;;4.50;99.90;;;;;;4955283;29;20035;-61
2021/12/05 04:33:13;;;;;;;5.75;1.40;;;4.60;99.90;;;;;;4955453;29;20058;-59
2021/12/05 04:35:39;;;;;;;4.53;1.92;;;4.60;99.90;;;;;;4954907;29;20388;-64
2021/12/05 04:38:05;;;;;;;6.55;2.08;;;4.60;99.90;;;;;;4955470;29;20030;-61
2021/12/05 04:40:33;;;;;;;4.80;1.65;;;4.60;99.90;;;;;;4955010;29;20106;-60
2021/12/05 04:42:59;;;;;;;4.47;1.83;;;4.60;99.90;;;;;;4955578;29;20058;-55
2021/12/05 04:45:29;;;;;;;5.57;1.77;;;4.60;99.90;;;;;;4954966;29;20055;-78
2021/12/05 04:47:55;;;;;;;9.05;1.67;;;4.60;99.90;;;;;;4955593;29;20023;-60
2021/12/05 04:50:21;;;;;;;8.55;2.90;;;4.50;99.90;;;;;;4955308;28;20047;-60
2021/12/05 04:52:48;;;;;;;11.80;2.72;;;4.50;99.90;;;;;;4954447;29;20077;-60
2021/12/05 04:55:14;;;;;;;10.43;1.50;;;4.50;99.90;;;;;;4955038;29;20035;-65
2021/12/05 04:57:41;;;;;;;9.05;3.40;;;4.50;99.90;;;;;;4954567;28;20055;-64
2021/12/05 05:00:18;;;;;;;6.50;1.70;;;4.50;99.90;;;;;;4954989;29;20162;-59
2021/12/05 05:02:44;;;;;;;7.63;1.90;;;4.40;99.90;;;;;;4954350;29;20472;-60
2021/12/05 05:05:11;;;;;;;6.60;1.80;;;4.50;99.90;;;;;;4954731;29;20384;-63
2021/12/05 05:07:40;;;;;;;6.22;1.50;;;4.50;99.90;;;;;;4937215;29;20110;-61
2021/12/05 05:10:13;;;;;;;8.00;2.67;;;4.60;99.90;;;;;;4954768;29;20023;-55
2021/12/05 05:12:39;;;;;;;7.82;1.65;;;4.60;99.90;;;;;;4937945;29;20126;-53
2021/12/05 05:15:06;;;;;;;6.68;1.83;;;4.50;99.90;;;;;;4955244;29;20027;-56
2021/12/05 05:17:33;;;;;;;3.92;1.33;;;4.50;99.90;;;;;;4954511;29;20023;-57
2021/12/05 05:20:03;;;;;;;4.97;1.88;;;4.60;99.90;;;;;;4937293;29;20027;-66
2021/12/05 05:22:47;;;;;;;6.20;1.90;;;4.60;99.90;;;;;;4954313;29;20027;-66
2021/12/05 05:30:56;;;;;;;7.13;2.00;;;4.50;99.90;;;;;;4954799;29;20031;-59
2021/12/05 05:46:56;;;;;;;6.82;2.85;;;4.40;99.90;;;;;;4924108;29;20130;-60
2021/12/05 05:49:36;;;;;;;5.30;2.00;;;4.40;99.90;;;;;;4954369;29;20039;-60
2021/12/05 05:52:03;;;;;;;4.82;1.85;;;4.40;99.90;;;;;;4954193;29;20023;-59
2021/12/05 05:54:29;;;;;;;8.02;2.10;;;4.50;99.90;;;;;;4953935;29;20072;-57
2021/12/05 05:57:05;;;;;;;6.53;2.30;;;4.50;99.90;;;;;;4953879;28;20047;-60
2021/12/05 05:59:41;;;;;;;5.70;2.42;;;4.50;99.90;;;;;;4953275;29;20035;-62
2021/12/05 06:04:35;;;;;;;3.88;1.88;;;4.50;99.90;;;;;;4953506;29;20122;-60
2021/12/05 06:07:01;;;;;;;6.78;1.92;;;4.30;99.90;;;;;;4936759;29;20031;-56
2021/12/05 06:09:27;;;;;;;9.48;2.08;;;4.50;99.90;;;;;;4936622;29;20062;-60
2021/12/05 06:11:52;;;;;;;6.75;2.10;;;4.60;99.90;;;;;;4953116;29;20034;-56
2021/12/05 06:14:18;;;;;;;6.25;1.98;;;4.50;99.90;;;;;;4953785;29;20093;-56
2021/12/05 06:16:44;;;;;;;8.20;2.55;;;4.50;99.90;;;;;;4953198;29;20050;-64
2021/12/05 06:19:09;;;;;;;7.82;1.98;;;4.50;99.90;;;;;;4953499;29;20104;-62
2021/12/05 06:21:35;;;;;;;4.72;1.50;;;4.60;99.90;;;;;;4935761;29;20035;-55
2021/12/05 06:24:01;;;;;;;4.05;1.90;;;4.80;99.90;;;;;;4953417;29;20035;-62
2021/12/05 06:26:26;;;;;;;5.60;1.73;;;4.70;99.90;;;;;;4953585;29;20066;-60
2021/12/05 06:40:15;;;;;;;6.18;1.60;;;4.50;99.90;;;;;;4952588;29;20043;-61
2021/12/05 06:43:03;;;;;;;2.90;1.77;;;4.50;99.90;;;;;;4952273;29;20035;-58
2021/12/05 06:48:07;;;;;;;6.03;2.05;;;4.50;99.90;;;;;;4953242;29;20035;-60
2021/12/05 06:50:33;;;;;;;4.93;1.75;;;4.50;99.90;;;;;;4935804;29;20469;-70
2021/12/05 06:52:59;;;;;;;9.10;2.50;;;4.60;99.90;;;;;;4935894;29;20035;-59
2021/12/05 06:55:25;;;;;;;4.78;2.28;;;4.60;99.90;;;;;;4935998;29;20027;-58
2021/12/05 06:57:52;;;;;;;4.65;1.65;;;4.50;99.90;;;;;;4963512;28;20057;-57
2021/12/05 07:00:21;;;;;;;8.32;1.70;;;4.60;99.90;;;;;;4972350;28;20046;-58
2021/12/05 07:02:47;;;;;;;10.15;2.53;;;4.70;99.90;;;;;;4954640;28;20035;-59
2021/12/05 07:07:41;;;;;;;8.93;1.80;;;4.50;99.90;;;;;;4971495;28;20030;-59
2021/12/05 07:10:08;;;;;;;8.10;2.08;;;4.50;99.90;;;;;;4970753;28;20031;-57
2021/12/05 07:15:17;;;;;;;4.65;1.77;;;4.50;99.90;;;;;;4972521;28;20031;-57
2021/12/05 07:23:28;;;;;;;9.18;2.05;;;4.50;99.90;;;;;;4972351;28;20035;-59
2021/12/05 07:26:05;;;;;;;6.47;2.05;;;4.40;99.90;;;;;;4971730;28;20102;-65
2021/12/05 07:42:19;;;;;;;3.45;1.38;;;4.50;99.90;;;;;;4971920;28;20122;-61
2021/12/05 07:44:45;;;;;;;9.05;1.83;;;4.50;99.90;;;;;;4970193;28;20054;-55
2021/12/05 07:47:15;;;;;;;8.43;2.10;;;4.70;99.90;;;;;;4970814;28;20112;-64
2021/12/05 07:49:41;;;;;;;3.22;1.45;;;4.80;99.90;;;;;;4971124;28;20031;-61
2021/12/05 07:52:07;;;;;;;5.78;1.90;;;4.80;99.90;;;;;;4971991;28;20070;-66
2021/12/05 07:54:40;;;;;;;6.15;1.95;;;4.90;99.90;;;;;;4972760;28;20424;-66
2021/12/05 07:57:27;;;;;;;5.93;2.38;;;4.90;99.90;;;;;;4970676;28;20093;-60
2021/12/05 08:16:44;;;;;;;4.75;1.23;;;5.30;99.90;;;;;;4971423;28;20038;-77
2021/12/05 08:19:10;;;;;;;8.23;1.50;;;5.60;99.90;;;;;;4970659;28;20121;-59
2021/12/05 08:21:35;;;;;;;3.08;1.40;;;6.20;99.90;;;;;;4971943;28;20114;-57
2021/12/05 08:24:01;;;;;;;2.60;0.90;;;6.40;99.90;;;;;;4971035;28;20134;-56
2021/12/05 08:26:32;;;;;;;5.90;1.30;;;6.40;99.90;;;;;;4974359;28;20487;-59
2021/12/05 08:29:12;;;;;;;5.60;1.80;;;6.20;99.90;;;;;;4974635;28;20109;-61
2021/12/05 08:34:41;;;;;;;5.05;1.33;;;5.70;99.90;;;;;;4974935;28;20034;-58
2021/12/05 10:08:52;;;;;;;6.07;1.33;;;9.70;99.90;;;;;;4953443;29;20046;-62
2021/12/05 10:16:50;;;;;;;2.65;0.82;;;10.80;99.90;;;;;;4953656;29;20499;-63
2021/12/05 10:36:16;;;;;;;2.72;1.23;;;11.40;99.90;;;;;;4953246;29;20125;-62
2021/12/05 10:38:51;;;;;;;4.10;1.00;;;11.20;99.90;;;;;;4953277;29;20023;-61
2021/12/05 10:44:03;;;;;;;2.38;0.98;;;11.60;99.90;;;;;;4952525;29;20039;-62
2021/12/05 10:46:29;;;;;;;2.53;0.80;;;11.50;99.90;;;;;;4953509;29;20035;-62
2021/12/05 10:49:03;;;;;;;6.55;1.52;;;11.70;99.90;;;;;;4935677;29;20050;-61
2021/12/05 10:51:55;;;;;;;4.30;1.17;;;11.60;99.90;;;;;;4953987;29;20054;-63
2021/12/05 10:54:25;;;;;;;;;;;11.50;99.90;;;;;;4953527;29;20134;-61
2021/12/05 10:56:58;;;;;;;3.22;0.77;;;11.80;99.90;;;;;;4952184;28;20315;-62
2021/12/05 10:59:36;;;;;;;1.70;0.60;;;12.20;99.90;;;;;;4953065;29;20050;-61
2021/12/05 11:02:09;;;;;;;0.98;0.30;;;12.10;99.10;;;;;;4935164;29;20038;-62
2021/12/05 11:04:40;;;;;;;2.22;0.45;;;11.90;99.90;;;;;;4952993;29;20027;-62
2021/12/05 11:07:12;;;;;;;2.00;1.00;;;11.90;99.90;;;;;;4935264;29;20023;-62
2021/12/05 11:09:39;;;;;;;;;;;11.10;99.90;;;;;;4953149;29;20263;-61
2021/12/05 11:12:08;;;;;;;3.13;1.50;;;11.00;99.90;;;;;;4934443;29;19993;-62
2021/12/05 11:14:56;;;;;;;3.70;1.00;;;10.10;99.90;;;;;;4952632;29;20069;-62
2021/12/05 11:17:27;;;;;;;1.65;0.45;;;10.30;99.90;;;;;;4952049;29;20073;-61
2021/12/05 11:19:53;;;;;;;2.33;0.80;;;10.50;99.90;;;;;;4952130;29;20031;-63
2021/12/05 11:22:25;;;;;;;5.53;1.80;;;11.30;99.90;;;;;;4953043;29;20445;-61
2021/12/05 11:25:00;;;;;;;3.95;1.08;;;11.90;99.90;;;;;;4919284;29;20131;-61
2021/12/05 11:27:34;;;;;;;2.00;0.50;;;11.60;99.90;;;;;;4952749;29;20024;-61
2021/12/05 11:30:16;;;;;;;2.75;0.85;;;11.30;99.90;;;;;;4951954;29;20035;-60
2021/12/05 11:32:59;;;;;;;3.83;0.50;;;11.40;99.90;;;;;;4952502;29;20437;-62
2021/12/05 11:35:30;;;;;;;3.50;0.93;;;10.90;99.90;;;;;;4935445;29;20483;-61
2021/12/05 11:38:05;;;;;;;0.68;0.52;;;10.70;99.90;;;;;;4934526;29;20034;-63
2021/12/05 11:40:47;;;;;;;2.17;0.68;;;10.00;99.90;;;;;;4952525;29;20038;-61
2021/12/05 11:43:21;;;;;;;2.03;0.50;;;9.30;99.90;;;;;;4935010;29;20039;-62
2021/12/05 11:46:03;;;;;;;2.28;0.95;;;9.10;99.90;;;;;;4934519;29;20031;-62
2021/12/05 11:48:37;;;;;;;2.58;0.90;;;9.40;99.90;;;;;;4952328;29;20114;-61
2021/12/05 11:51:34;;;;;;;2.30;0.55;;;9.30;99.90;;;;;;4934258;29;20476;-62
2021/12/05 11:54:08;;;;;;;2.38;0.75;;;9.30;99.90;;;;;;4966245;28;20043;-62
2021/12/05 11:56:34;;;;;;;3.97;1.33;;;9.20;99.90;;;;;;4952145;28;20055;-61
2021/12/05 11:59:08;;;;;;;3.00;0.80;;;8.70;99.90;;;;;;4952161;28;20042;-61
2021/12/05 12:01:40;;;;;;;2.10;1.63;;;8.70;99.90;;;;;;4938136;29;20037;-61
2021/12/05 12:04:08;;;;;;;4.00;1.10;;;8.50;99.90;;;;;;4937544;29;20130;-59
2021/12/05 12:06:33;;;;;;;2.45;0.98;;;8.40;99.90;;;;;;4938567;29;20024;-60
2021/12/05 12:08:59;;;;;;;2.63;0.70;;;8.60;99.90;;;;;;4955175;29;20410;-61
2021/12/05 12:11:26;;;;;;;4.57;1.20;;;8.70;99.90;;;;;;4955859;29;20027;-62
2021/12/05 12:13:53;;;;;;;3.45;1.20;;;9.30;99.90;;;;;;4954624;29;20036;-61
2021/12/05 12:16:21;;;;;;;5.00;0.75;;;10.40;99.90;;;;;;4955347;29;20023;-62
2021/12/05 12:18:49;;;;;;;2.72;0.85;;;11.50;99.90;;;;;;4938146;29;20027;-61
2021/12/05 12:21:18;;;;;;;1.48;0.73;;;12.50;99.90;;;;;;4937620;29;20118;-61
2021/12/05 12:23:46;;;;;;;1.42;0.57;;;13.00;96.90;;;;;;4937737;29;20114;-63
2021/12/05 12:26:12;;;;;;;2.92;0.50;;;13.40;95.50;;;;;;4937370;29;20476;-61
2021/12/05 12:28:39;;;;;;;2.80;0.50;;;13.40;95.30;;;;;;4955002;29;20073;-61
2021/12/05 12:31:13;;;;;;;1.73;0.47;;;12.70;96.00;;;;;;4937398;29;20061;-62
2021/12/05 12:33:50;;;;;;;2.05;0.82;;;12.00;96.30;;;;;;4938145;29;20442;-59
2021/12/05 12:36:16;;;;;;;1.55;0.70;;;11.50;97.10;;;;;;4954742;29;20358;-60
2021/12/05 12:38:44;;;;;;;1.58;0.68;;;11.50;97.30;;;;;;4955219;29;20041;-62
2021/12/05 12:41:12;;;;;;;2.60;0.82;;;11.50;97.70;;;;;;4954685;29;20027;-61
2021/12/05 12:43:48;;;;;;;2.58;1.00;;;11.50;97.00;;;;;;4955438;29;20125;-62
2021/12/05 12:46:55;;;;;;;2.38;0.60;;;10.90;97.30;;;;;;4932999;29;20381;-60
2021/12/05 12:49:25;;;;;;;3.78;0.60;;;10.10;99.30;;;;;;4895312;29;20029;-61
2021/12/05 12:51:59;;;;;;;0.80;0.30;;;10.20;99.60;;;;;;4928450;29;20461;-61
2021/12/05 12:54:29;;;;;;;5.20;1.02;;;9.90;99.90;;;;;;4933555;29;20072;-61
2021/12/05 12:57:18;;;;;;;1.27;0.60;;;11.30;99.40;;;;;;4950032;28;20043;-78
2021/12/05 12:59:47;;;;;;;2.35;1.13;;;11.60;97.60;;;;;;4972358;28;20030;-62
2021/12/05 13:10:10;;;;;;;1.70;1.02;;;13.20;95.60;;;;;;4971817;28;20031;-63
2021/12/05 13:12:44;;;;;;;1.85;0.70;;;13.00;95.00;;;;;;4971632;28;20039;-62
2021/12/05 13:15:31;;;;;;;3.63;0.80;;;12.90;94.80;;;;;;4971291;28;20129;-62
2021/12/05 13:18:08;;;;;;;3.45;1.40;;;13.10;94.90;;;;;;4973176;28;20420;-78
2021/12/05 13:20:43;;;;;;;3.00;1.35;;;13.30;94.70;;;;;;4972722;28;20392;-62
2021/12/05 13:23:10;;;;;;;1.80;0.60;;;12.80;94.40;;;;;;4971753;28;20133;-62
2021/12/05 13:26:08;;;;;;;2.45;0.85;;;14.10;92.80;;;;;;4972407;28;20034;-63
2021/12/05 13:28:42;;;;;;;1.60;0.45;;;14.50;91.70;;;;;;4973821;28;20057;-61
2021/12/05 13:31:27;;;;;;;2.67;0.60;;;14.30;92.90;;;;;;4972037;28;20033;-65
2021/12/05 13:34:18;;;;;;;2.67;0.40;;;15.30;92.10;;;;;;4973469;28;20548;-61
2021/12/05 13:37:04;;;;;;;;;;;16.40;85.10;;;;;;4965300;28;20041;-62
2021/12/05 13:39:41;;;;;;;5.03;0.68;;;15.20;87.90;;;;;;4971497;28;19914;-61
2021/12/05 13:42:25;;;;;;;3.00;0.55;;;14.40;88.10;;;;;;4973097;28;20031;-61
2021/12/05 13:45:00;;;;;;;3.03;0.75;;;13.50;90.40;;;;;;4972330;28;20027;-61
2021/12/05 13:47:31;;;;;;;2.60;0.80;;;12.20;93.20;;;;;;4972442;28;20114;-62
2021/12/05 13:50:18;;;;;;;1.58;0.60;;;11.10;95.30;;;;;;4973833;28;20030;-61
2021/12/05 13:52:53;;;;;;;6.65;1.75;;;10.50;97.50;;;;;;4973528;28;20444;-63
2021/12/05 13:55:34;;;;;;;3.42;0.70;;;10.30;98.40;;;;;;4971948;28;20475;-61
2021/12/05 13:58:25;;;;;;;3.35;0.98;;;10.10;98.60;;;;;;4955703;28;20040;-64
2021/12/05 14:00:51;;;;;;;2.40;0.77;;;10.70;97.90;;;;;;4936347;29;20086;-62
2021/12/05 14:03:39;;;;;;;0.93;0.30;;;11.10;96.80;;;;;;4935852;29;20033;-62
2021/12/05 14:06:41;;;;;;;2.58;0.73;;;10.80;96.80;;;;;;4953355;29;20093;-62
2021/12/05 14:09:12;;;;;;;1.48;0.70;;;10.80;97.10;;;;;;4953024;29;20094;-61
2021/12/05 14:11:47;;;;;;;1.27;0.82;;;10.30;97.40;;;;;;4936161;29;20035;-61
2021/12/05 14:14:14;;;;;;;2.90;1.27;;;9.80;97.80;;;;;;4952692;29;20057;-60
2021/12/05 14:16:42;;;;;;;2.65;0.90;;;9.30;99.10;;;;;;4967682;28;20114;-60
2021/12/05 14:19:12;;;;;;;1.05;0.60;;;9.10;99.90;;;;;;4952760;29;20050;-61
2021/12/05 14:21:50;;;;;;;1.73;0.50;;;9.20;99.90;;;;;;4953457;29;20484;-62
2021/12/05 14:24:19;;;;;;;2.42;1.10;;;;;;;;;;4935263;29;20365;-62
2021/12/05 14:26:48;;;;;;;6.85;1.55;;;8.50;99.90;;;;;;4953814;29;20483;-63
2021/12/05 14:29:17;;;;;;;2.58;0.93;;;8.60;99.90;;;;;;4967666;28;20043;-61
2021/12/05 14:31:56;;;;;;;2.45;0.90;;;8.50;99.90;;;;;;4936051;29;20039;-62
2021/12/05 14:34:23;;;;;;;0.80;0.70;;;8.10;99.90;;;;;;4952850;29;20507;-61
2021/12/05 14:37:09;;;;;;;2.35;0.77;;;8.20;99.90;;;;;;4920680;29;20028;-67
2021/12/05 14:39:40;;;;;;;3.03;0.75;;;8.30;99.90;;;;;;4935934;29;20114;-62
2021/12/05 14:42:17;;;;;;;2.65;1.00;;;8.30;99.90;;;;;;4967752;28;20035;-58
2021/12/05 14:44:45;;;;;;;1.50;0.68;;;8.20;99.90;;;;;;4935990;29;20118;-61
2021/12/05 14:47:15;;;;;;;1.40;0.80;;;8.10;99.90;;;;;;4935371;29;20464;-60
2021/12/05 14:49:44;;;;;;;2.33;1.33;;;7.90;99.90;;;;;;4953206;29;20121;-61
2021/12/05 14:52:24;;;;;;;2.20;1.00;;;8.00;99.90;;;;;;4934830;29;20425;-62
2021/12/05 14:54:51;;;;;;;2.83;1.45;;;8.00;99.90;;;;;;4967894;28;20114;-62
2021/12/05 14:57:21;;;;;;;1.95;0.60;;;7.90;99.90;;;;;;4952178;28;20065;-61
2021/12/05 14:59:50;;;;;;;2.15;0.68;;;7.80;99.90;;;;;;4967265;28;20527;-61
2021/12/05 15:02:19;;;;;;;1.83;0.60;;;7.50;99.90;;;;;;4935060;29;20030;-60
2021/12/05 15:04:52;;;;;;;2.22;0.73;;;7.50;99.90;;;;;;4953042;29;20027;-61
2021/12/05 15:07:21;;;;;;;2.72;0.80;;;7.60;99.90;;;;;;4952376;29;20027;-61
2021/12/05 15:09:50;;;;;;;0.68;0.43;;;7.70;99.90;;;;;;4952595;29;20031;-62
2021/12/05 15:12:32;;;;;;;2.17;1.10;;;7.60;99.90;;;;;;4952133;29;20046;-60
2021/12/05 15:15:10;;;;;;;2.53;1.10;;;7.40;99.90;;;;;;4967896;28;20121;-62
2021/12/05 15:17:39;;;;;;;1.70;0.70;;;7.40;99.90;;;;;;4935612;29;20031;-60
2021/12/05 15:20:17;;;;;;;3.80;1.08;;;7.40;99.90;;;;;;4951720;29;20028;-61
2021/12/05 15:22:48;;;;;;;2.90;0.57;;;7.50;99.90;;;;;;4952905;29;20031;-60
2021/12/05 15:25:16;;;;;;;4.25;1.20;;;7.30;99.90;;;;;;4952359;29;20027;-63
2021/12/05 15:27:43;;;;;;;5.55;1.95;;;7.40;99.90;;;;;;4952966;29;20043;-62
2021/12/05 15:30:14;;;;;;;2.95;1.10;;;7.60;99.90;;;;;;4934638;29;20489;-62
2021/12/05 15:32:40;;;;;;;3.78;2.03;;;7.50;99.90;;;;;;4952697;29;20047;-60
2021/12/05 15:35:16;;;;;;;16.13;9.95;;;7.40;99.90;;;;;;4954676;28;20035;-61
2021/12/05 15:37:51;;;;;;;2.50;1.65;;;7.30;99.90;;;;;;4971237;28;20366;-61
2021/12/05 15:40:17;;;;;;;2.95;1.40;;;7.30;99.90;;;;;;4955967;29;20133;-62
2021/12/05 15:42:43;;;;;;;3.67;1.52;;;7.30;99.90;;;;;;4945721;29;20035;-63
2021/12/05 15:45:11;;;;;;;3.22;1.35;;;7.30;99.90;;;;;;4955253;29;20393;-60
2021/12/05 15:47:38;;;;;;;3.30;1.50;;;7.10;99.90;;;;;;4958386;28;20122;-61
2021/12/05 15:50:14;;;;;;;2.60;1.33;;;7.20;99.90;;;;;;4971328;28;20059;-62
2021/12/05 15:52:45;;;;;;;3.20;1.20;;;7.30;99.90;;;;;;4953658;28;20053;-59
2021/12/05 15:55:21;;;;;;;3.40;1.23;;;7.40;99.90;;;;;;4974421;28;20118;-63
2021/12/05 15:57:53;;;;;;;3.88;1.38;;;7.60;99.90;;;;;;4976874;28;20047;-61
2021/12/05 16:00:24;;;;;;;;;;;7.50;99.90;;;;;;4987497;28;20113;-61
2021/12/05 16:02:58;;;;;;;3.03;1.95;;;7.50;99.90;;;;;;4993819;28;19910;-57
2021/12/05 16:05:24;;;;;;;3.17;1.33;;;7.40;99.90;;;;;;5001734;28;20030;-68
2021/12/05 16:07:51;;;;;;;2.63;1.60;;;7.30;99.90;;;;;;4990591;28;20026;-59
2021/12/05 16:10:22;;;;;;;3.08;1.65;;;7.20;99.90;;;;;;4992320;28;20023;-60
2021/12/05 16:12:51;;;;;;;3.63;1.90;;;7.00;99.90;;;;;;4986237;28;20070;-63
2021/12/05 16:15:19;;;;;;;3.78;2.05;;;7.00;99.90;;;;;;4991489;28;20113;-62
2021/12/05 16:17:57;;;;;;;2.92;1.58;;;7.00;99.90;;;;;;4991796;28;20437;-61
2021/12/05 16:20:27;;;;;;;6.07;2.03;;;7.10;99.90;;;;;;4981154;28;20030;-59
2021/12/05 16:23:22;;;;;;;2.80;1.65;;;7.10;99.90;;;;;;4978459;28;20026;-62
2021/12/05 16:25:59;;;;;;;3.65;2.00;;;7.10;99.90;;;;;;4985898;28;20046;-61
2021/12/05 16:28:40;;;;;;;3.08;2.03;;;7.10;99.90;;;;;;4981639;28;20045;-62
2021/12/05 16:31:09;;;;;;;7.07;2.90;;;7.00;99.90;;;;;;4993293;28;20072;-78
2021/12/05 16:33:35;;;;;;;11.48;3.20;;;7.10;99.90;;;;;;4984436;28;20074;-62
2021/12/05 16:36:02;;;;;;;12.13;3.38;;;7.10;99.90;;;;;;4987137;28;20559;-60
2021/12/05 16:38:33;;;;;;;6.68;2.97;;;7.00;99.90;;;;;;4992737;28;20026;-61
2021/12/05 16:41:17;;;;;;;4.60;2.85;;;7.10;99.90;;;;;;4993305;28;20133;-66
2021/12/05 16:43:55;;;;;;;8.27;2.70;;;7.10;99.90;;;;;;4981700;28;20041;-61
2021/12/05 16:46:26;;;;;;;4.03;2.60;;;7.10;99.90;;;;;;4979920;28;20112;-62
2021/12/05 16:48:53;;;;;;;4.75;2.58;;;7.10;99.90;;;;;;4974752;28;20031;-64
2021/12/05 16:51:27;;;;;;;7.35;2.85;;;7.20;99.90;;;;;;4980989;28;20034;-61
2021/12/05 16:54:01;;;;;;;9.20;3.35;;;7.20;99.90;;;;;;4990408;28;20065;-61
2021/12/05 16:56:45;;;;;;;4.45;2.35;;;7.10;99.90;;;;;;4980334;28;20065;-62
2021/12/05 16:59:18;;;;;;;6.50;2.45;;;7.10;99.90;;;;;;4988708;28;20089;-63
2021/12/05 17:01:45;;;;;;;4.85;3.10;;;7.00;99.90;;;;;;4992394;28;20394;-61
2021/12/05 17:04:11;;;;;;;10.30;3.60;;;7.00;99.90;;;;;;4991261;28;20081;-61
2021/12/05 17:06:51;;;;;;;5.97;2.70;;;7.00;99.90;;;;;;4992516;28;20049;-61
2021/12/05 17:09:18;;;;;;;9.65;5.75;;;6.90;99.90;;;;;;4989361;28;20037;-61
2021/12/05 17:11:44;;;;;;;5.25;3.88;;;6.90;99.90;;;;;;4983928;28;20069;-62
2021/12/05 17:14:23;;;;;;;6.75;4.38;;;6.90;99.90;;;;;;4986244;28;20062;-65
2021/12/05 17:16:49;;;;;;;8.70;4.25;;;6.90;99.90;;;;;;4981367;28;20026;-63
2021/12/05 17:19:18;;;;;;;8.10;3.53;;;6.90;99.90;;;;;;4992544;28;20088;-62
2021/12/05 17:21:47;;;;;;;7.65;3.55;;;6.80;99.90;;;;;;4979504;28;20046;-63
2021/12/05 17:24:25;;;;;;;5.93;3.38;;;6.80;99.90;;;;;;4978294;28;20286;-62
2021/12/05 17:27:00;;;;;;;9.98;2.92;;;6.70;99.90;;;;;;4978671;28;20035;-62
2021/12/05 17:29:34;;;;;;;6.85;3.33;;;6.60;99.90;;;;;;4988996;28;20066;-61
2021/12/05 17:32:07;;;;;;;4.80;2.83;;;6.60;99.90;;;;;;4992975;28;20033;-62
2021/12/05 17:34:41;;;;;;;5.50;3.45;;;6.60;99.90;;;;;;4992597;28;20034;-61
2021/12/05 17:37:14;;;;;;;6.68;3.95;;;6.60;99.90;;;;;;4993473;28;20106;-60
2021/12/05 17:39:42;;;;;;;8.63;3.95;;;6.50;99.90;;;;;;4993143;28;20069;-58
2021/12/05 17:42:11;;;;;;;8.77;4.30;;;6.50;99.90;;;;;;4992975;28;20483;-60
2021/12/05 17:44:38;;;;;;;6.60;4.18;;;6.60;99.90;;;;;;4993466;28;20364;-61
2021/12/05 17:47:08;;;;;;;6.50;3.10;;;6.60;99.90;;;;;;4993157;28;20117;-62
2021/12/05 17:49:38;;;;;;;5.60;2.95;;;6.60;99.90;;;;;;4987577;28;20027;-62
2021/12/05 17:52:06;;;;;;;6.50;3.58;;;6.60;99.90;;;;;;4992521;28;20041;-61
2021/12/05 17:54:39;;;;;;;7.10;3.05;;;6.60;99.90;;;;;;4991262;28;20072;-61
2021/12/05 17:57:13;;;;;;;7.38;3.70;;;6.70;99.90;;;;;;4985375;28;20209;-60
2021/12/05 18:04:59;;;;;;;6.45;2.70;;;6.70;99.90;;;;;;4992095;28;20045;-59
2021/12/05 18:07:25;;;;;;;6.78;4.30;;;6.70;99.90;;;;;;4991287;28;20034;-60
2021/12/05 18:09:51;;;;;;;8.13;3.83;;;6.60;99.90;;;;;;4989887;28;20034;-62
2021/12/05 18:12:23;;;;;;;8.27;4.07;;;6.70;99.90;;;;;;4989060;28;20438;-62
2021/12/05 18:14:52;;;;;;;6.63;3.67;;;6.70;99.90;;;;;;4989492;28;20657;-63
2021/12/05 18:17:18;;;;;;;6.10;3.08;;;6.70;99.90;;;;;;4986888;28;20045;-62
2021/12/05 18:19:52;;;;;;;6.68;3.63;;;6.70;99.90;;;;;;5060707;28;20395;-61
2021/12/05 18:22:18;;;;;;;5.05;3.00;;;6.70;99.90;;;;;;5045605;28;20424;-62
2021/12/05 18:24:45;;;;;;;8.07;6.05;;;6.60;99.90;;;;;;5046137;28;20060;-62
2021/12/05 18:27:12;;;;;;;26.50;15.80;;;6.60;99.90;;;;;;5046661;28;20034;-61
2021/12/05 18:29:38;;;;;;;20.42;13.10;;;6.70;99.90;;;;;;5047597;28;20033;-65
2021/12/05 18:32:05;;;;;;;11.45;6.53;;;6.70;99.90;;;;;;5047024;28;20059;-62
2021/12/05 18:34:32;;;;;;;7.07;4.20;;;6.70;99.90;;;;;;5047132;28;20379;-61
2021/12/05 18:37:01;;;;;;;6.85;3.25;;;6.80;99.90;;;;;;5044578;28;20867;-63
2021/12/05 18:39:32;;;;;;;4.93;3.35;;;6.70;99.90;;;;;;5036425;28;20072;-58
2021/12/05 18:42:04;;;;;;;4.82;3.50;;;6.60;99.90;;;;;;5040333;28;20429;-58
2021/12/05 18:44:32;;;;;;;5.25;3.28;;;6.60;99.90;;;;;;5055063;28;20072;-63
2021/12/05 18:46:59;;;;;;;5.75;3.40;;;6.70;99.90;;;;;;5034504;28;20029;-66
2021/12/05 18:49:28;;;;;;;6.40;3.70;;;6.60;99.90;;;;;;5044475;28;20029;-63